Time;durP1;ratioP1;P1;durP2;ratioP2;P2;SDS_P1;SDS_P2;PMS_P1;PMS_P2;Temp;Humidity;BMP_temperature;BMP_pressure;BME280_temperature;BME280_humidity;BME280_pressure;Samples;Min_cycle;Max_cycle;Signal;HPM_P1;HPM_P2
2022/12/15 05:32:31;;;;;;;46.93;21.70;;;0.20;99.90;;;;;;4940076;29;20472;-67
2022/12/15 05:35:00;;;;;;;54.73;23.33;;;0.10;99.90;;;;;;4948445;29;20468;-74
2022/12/15 05:37:26;;;;;;;48.20;22.80;;;0.10;99.90;;;;;;4947725;29;20465;-75
2022/12/15 05:39:53;;;;;;;50.90;22.60;;;0.00;99.90;;;;;;4947959;29;21040;-74
2022/12/15 05:42:20;;;;;;;51.90;21.23;;;0.00;99.90;;;;;;4948691;28;20852;-74
2022/12/15 05:44:47;;;;;;;48.77;22.53;;;0.00;99.90;;;;;;4948514;29;20989;-74
2022/12/15 05:47:14;;;;;;;48.47;21.57;;;0.00;99.90;;;;;;4947487;29;20942;-77
2022/12/15 05:49:41;;;;;;;52.73;22.90;;;0.00;99.90;;;;;;4948276;29;20497;-75
2022/12/15 05:52:09;;;;;;;49.43;22.17;;;0.10;99.90;;;;;;4947888;28;20560;-75
2022/12/15 05:54:36;;;;;;;49.10;22.60;;;0.10;99.90;;;-142.49;0.00;146821.09;4947888;29;20453;-75
2022/12/15 05:57:03;;;;;;;47.13;22.00;;;0.10;99.90;;;;;;4947255;29;20469;-72
2022/12/15 05:59:29;;;;;;;56.50;22.93;;;0.10;99.90;;;;;;4947961;29;20457;-73
2022/12/15 06:01:56;;;;;;;54.77;22.63;;;0.10;99.90;;;;;;4946288;28;20493;-73
2022/12/15 06:04:23;;;;;;;55.90;23.13;;;0.10;99.90;;;;;;4947695;29;20976;-73
2022/12/15 06:06:50;;;;;;;45.60;22.27;;;0.20;99.90;;;;;;4946747;29;20464;-76
2022/12/15 06:09:18;;;;;;;47.93;21.90;;;0.10;99.90;;;;;;4947764;29;20493;-74
2022/12/15 06:11:45;;;;;;;49.90;23.70;;;0.10;99.90;;;;;;4948319;28;20484;-72
2022/12/15 06:14:12;;;;;;;49.50;24.97;;;0.00;99.90;;;;;;4948184;29;21162;-72
2022/12/15 06:16:39;;;;;;;55.93;25.03;;;0.00;99.90;;;;;;4947436;29;20461;-77
2022/12/15 06:19:05;;;;;;;52.73;24.50;;;0.00;99.90;;;;;;4948204;29;20449;-72
2022/12/15 06:21:35;;;;;;;49.37;22.70;;;0.10;99.90;;;;;;4947810;28;20488;-74
2022/12/15 06:24:02;;;;;;;49.17;22.60;;;0.10;99.90;;;;;;4947697;29;20858;-74
2022/12/15 06:26:32;;;;;;;58.23;24.40;;;0.20;99.90;;;;;;4947152;29;20457;-75
2022/12/15 06:29:01;;;;;;;49.43;22.67;;;0.20;99.90;;;;;;4947156;29;20464;-74
2022/12/15 06:31:28;;;;;;;48.50;23.77;;;0.20;99.90;;;;;;4947827;28;20615;-73
2022/12/15 06:33:55;;;;;;;45.67;21.47;;;0.20;99.90;;;;;;4947886;29;20460;-74
2022/12/15 06:36:23;;;;;;;48.57;22.30;;;0.20;99.90;;;;;;4951120;28;20457;-72
2022/12/15 06:38:50;;;;;;;54.87;24.33;;;0.30;99.90;;;;;;4951400;29;20456;-74
2022/12/15 06:41:19;;;;;;;50.23;23.60;;;0.20;99.90;;;;;;4950969;28;20480;-70
2022/12/15 06:43:50;;;;;;;53.90;24.67;;;0.20;99.90;;;;;;4950963;29;20465;-78
2022/12/15 06:46:17;;;;;;;59.77;24.60;;;0.30;99.90;;;;;;4950169;29;20461;-76
2022/12/15 06:48:45;;;;;;;48.87;21.93;;;0.30;99.90;;;;;;4951057;29;20457;-75
2022/12/15 06:51:13;;;;;;;49.20;22.67;;;0.30;99.90;;;23.55;0.00;146821.09;4950844;28;20503;-74
2022/12/15 06:53:41;;;;;;;51.27;22.30;;;0.30;99.90;;;;;;4951246;29;20453;-74
2022/12/15 06:56:16;;;;;;;48.20;23.17;;;0.30;99.90;;;;;;4949462;29;20550;-74
2022/12/15 06:58:42;;;;;;;47.83;23.10;;;0.40;99.90;;;;;;4951060;29;20463;-74
2022/12/15 07:01:11;;;;;;;46.00;23.60;;;0.40;99.90;;;;;;4948920;28;20493;-73
2022/12/15 07:03:38;;;;;;;54.00;24.40;;;0.40;99.90;;;;;;4951369;29;20453;-75
2022/12/15 07:06:08;;;;;;;52.97;23.47;;;0.40;99.90;;;;;;4950427;29;20461;-75
2022/12/15 07:08:35;;;;;;;49.97;24.07;;;0.40;99.90;;;;;;4951032;29;20953;-74
2022/12/15 07:11:03;;;;;;;55.80;24.43;;;0.40;99.90;;;;;;4950860;28;20497;-74
2022/12/15 07:13:30;;;;;;;60.87;25.40;;;0.40;99.90;;;;;;4950339;29;20549;-75
2022/12/15 07:15:59;;;;;;;48.30;22.90;;;0.30;99.90;;;;;;4949768;29;20459;-73
2022/12/15 07:18:28;;;;;;;50.67;22.90;;;0.30;99.90;;;;;;4950430;29;20477;-74
2022/12/15 07:20:55;;;;;;;53.63;23.90;;;0.30;99.90;;;;;;4950419;28;20993;-74
2022/12/15 07:23:22;;;;;;;52.10;24.50;;;0.30;99.90;;;;;;4950358;29;20461;-73
2022/12/15 07:25:49;;;;;;;49.80;22.67;;;0.20;99.90;;;;;;4950423;29;20457;-76
2022/12/15 07:28:16;;;;;;;51.07;24.10;;;0.20;99.90;;;;;;4949711;29;20465;-74
2022/12/15 07:30:42;;;;;;;55.13;24.50;;;0.20;99.90;;;;;;4950266;28;20497;-75
2022/12/15 07:33:09;;;;;;;48.40;24.07;;;0.30;99.90;;;;;;4950466;29;20457;-75
2022/12/15 07:35:37;;;;;;;55.00;24.53;;;0.30;99.90;;;;;;4950555;29;20465;-73
2022/12/15 07:38:06;;;;;;;52.77;24.33;;;0.30;99.90;;;;;;4949603;29;20848;-74
2022/12/15 07:40:33;;;;;;;44.53;21.90;;;0.30;99.90;;;;;;4950159;28;20898;-75
2022/12/15 07:43:00;;;;;;;44.80;23.07;;;0.30;99.90;;;;;;4949896;29;20516;-74
2022/12/15 07:45:27;;;;;;;57.40;23.33;;;0.40;99.90;;;;;;4950419;29;20454;-74
2022/12/15 07:47:54;;;;;;;49.17;23.03;;;0.40;99.90;;;;;;4948957;28;20457;-74
2022/12/15 07:50:22;;;;;;;46.33;22.57;;;0.30;99.90;;;;;;4950061;28;20489;-74
2022/12/15 07:52:52;;;;;;;46.50;22.80;;;0.30;99.90;;;;;;4950081;29;20461;-74
2022/12/15 07:55:18;;;;;;;51.17;23.30;;;0.20;99.90;;;;;;4949985;29;20453;-74
2022/12/15 07:57:47;;;;;;;46.67;21.20;;;0.20;99.90;;;;;;4949465;29;20529;-74
2022/12/15 08:00:16;;;;;;;49.00;25.17;;;0.30;99.90;;;;;;4950213;28;20457;-74
2022/12/15 08:02:43;;;;;;;53.27;23.50;;;0.30;99.90;;;;;;4948362;29;20461;-74
2022/12/15 08:05:10;;;;;;;52.93;25.23;;;0.30;99.90;;;;;;4949925;29;20448;-75
2022/12/15 08:07:37;;;;;;;52.63;24.83;;;0.30;99.90;;;;;;4948788;29;20530;-74
2022/12/15 08:10:06;;;;;;;54.20;24.80;;;0.30;99.90;;;;;;4950047;29;20500;-75
2022/12/15 08:12:33;;;;;;;52.70;25.07;;;0.40;99.90;;;;;;4949735;28;20982;-74
2022/12/15 08:15:00;;;;;;;55.60;23.93;;;0.40;99.90;;;;;;4949473;29;20467;-74
2022/12/15 08:17:26;;;;;;;50.93;24.37;;;0.40;99.90;;;;;;4948865;29;21395;-74
2022/12/15 08:19:54;;;;;;;52.90;25.67;;;0.40;99.90;;;;;;4949912;29;20453;-73
2022/12/15 08:22:21;;;;;;;47.60;23.43;;;0.40;99.90;;;;;;4949202;28;20486;-74
2022/12/15 08:24:48;;;;;;;51.80;24.10;;;0.50;99.90;;;;;;4949447;29;20450;-74
2022/12/15 08:27:16;;;;;;;51.07;24.00;;;0.50;99.90;;;;;;4948987;29;21031;-77
2022/12/15 08:29:42;;;;;;;48.53;22.87;;;0.40;99.90;;;;;;4949525;29;20463;-75
2022/12/15 08:32:09;;;;;;;50.90;25.00;;;0.50;99.90;;;;;;4949253;28;20485;-74
2022/12/15 08:34:36;;;;;;;50.97;25.10;;;0.40;99.90;;;;;;4948930;29;20461;-74
2022/12/15 08:37:03;;;;;;;55.97;23.60;;;0.40;99.90;;;;;;4948668;29;20836;-74
2022/12/15 08:39:30;;;;;;;53.40;24.67;;;0.40;99.90;;;;;;4949447;29;20449;-74
2022/12/15 08:41:57;;;;;;;49.80;23.80;;;0.40;99.90;;;;;;4949585;28;20508;-74
2022/12/15 08:44:25;;;;;;;48.13;21.90;;;0.40;99.90;;;;;;4949091;29;20453;-75
2022/12/15 08:46:52;;;;;;;53.17;25.63;;;0.30;99.90;;;;;;4948204;29;20949;-75
2022/12/15 08:49:18;;;;;;;50.50;25.27;;;0.30;99.90;;;;;;4949047;29;20464;-74
2022/12/15 08:51:45;;;;;;;53.73;25.67;;;0.30;99.90;;;;;;4949045;28;21231;-74
2022/12/15 08:54:12;;;;;;;47.53;23.80;;;0.40;99.90;;;;;;4948834;29;21009;-78
2022/12/15 08:56:39;;;;;;;45.50;24.87;;;0.40;99.90;;;;;;4948457;29;20453;-74
2022/12/15 08:59:06;;;;;;;47.30;23.43;;;0.40;99.90;;;;;;4949060;28;20457;-74
2022/12/15 09:01:38;;;;;;;48.53;23.80;;;0.40;99.90;;;;;;4947507;28;20485;-74
2022/12/15 09:04:05;;;;;;;56.13;25.33;;;0.30;99.90;;;;;;4948748;29;20945;-74
2022/12/15 09:06:35;;;;;;;51.87;26.23;;;0.30;99.90;;;;;;4948077;29;20468;-74
2022/12/15 09:09:06;;;;;;;49.63;23.40;;;0.40;99.90;;;;;;4948967;29;20512;-73
2022/12/15 09:11:33;;;;;;;48.33;24.40;;;0.40;99.90;;;;;;4948776;28;20501;-74
2022/12/15 09:14:00;;;;;;;45.40;23.00;;;0.40;99.90;;;;;;4948551;29;20509;-77
2022/12/15 09:16:27;;;;;;;49.17;24.63;;;0.50;99.90;;;;;;4947757;29;20461;-75
2022/12/15 09:18:57;;;;;;;46.30;23.47;;;0.50;99.90;;;;;;4948856;29;20446;-74
2022/12/15 09:21:26;;;;;;;50.53;25.07;;;0.50;99.90;;;;;;4948831;28;20492;-74
2022/12/15 09:23:54;;;;;;;42.67;22.00;;;0.50;99.90;;;;;;4948625;29;20464;-74
2022/12/15 09:26:22;;;;;;;47.80;23.40;;;0.60;99.90;;;;;;4947542;29;20450;-75
2022/12/15 09:28:50;;;;;;;49.73;23.27;;;0.60;99.90;;;;;;4948086;29;20470;-74
2022/12/15 09:31:19;;;;;;;48.70;25.23;;;0.60;99.90;;;;;;4948022;28;21017;-76
2022/12/15 09:33:47;;;;;;;45.07;23.07;;;0.60;99.90;;;;;;4933679;29;20482;-74
2022/12/15 09:36:16;;;;;;;49.30;22.73;;;0.70;99.90;;;23.51;0.00;146996.44;4928804;29;20455;-74
2022/12/15 09:38:44;;;;;;;41.73;21.77;;;0.70;99.90;;;;;;4929330;29;20450;-74
2022/12/15 09:41:21;;;;;;;49.07;23.50;;;0.70;99.90;;;;;;4928831;29;21001;-74
2022/12/15 09:43:54;;;;;;;49.00;22.77;;;0.70;99.90;;;;;;4929310;29;20450;-74
2022/12/15 09:46:26;;;;;;;42.27;21.63;;;0.70;99.90;;;;;;4928549;29;20462;-74
2022/12/15 09:48:55;;;;;;;42.97;23.50;;;0.70;99.90;;;;;;4929403;29;20430;-74
2022/12/15 09:51:32;;;;;;;41.43;21.40;;;0.70;99.90;;;;;;4929023;29;20529;-74
2022/12/15 09:54:00;;;;;;;43.17;22.87;;;0.70;99.90;;;;;;4928789;29;21006;-74
2022/12/15 09:56:36;;;;;;;47.10;21.87;;;0.60;99.90;;;;;;4928262;29;20958;-74
2022/12/15 09:59:11;;;;;;;45.07;22.13;;;0.70;99.90;;;;;;4928945;29;20465;-74
2022/12/15 10:01:46;;;;;;;41.90;21.47;;;0.80;99.90;;;;;;4927837;29;20487;-74
2022/12/15 10:04:21;;;;;;;38.93;20.33;;;0.90;99.90;;;;;;4928495;29;20817;-75
2022/12/15 10:06:54;;;;;;;41.40;20.80;;;0.90;99.90;;;;;;4928420;29;20785;-78
2022/12/15 10:09:26;;;;;;;42.63;21.97;;;0.90;99.90;;;;;;4928757;29;20445;-75
2022/12/15 10:11:57;;;;;;;42.33;19.67;;;1.00;99.90;;;;;;4928616;29;21091;-72
2022/12/15 10:14:30;;;;;;;39.73;19.93;;;1.00;99.90;;;;;;4928837;29;20465;-71
2022/12/15 10:17:06;;;;;;;40.87;19.90;;;1.00;99.90;;;;;;4928104;29;20486;-76
2022/12/15 10:19:41;;;;;;;42.50;20.77;;;1.00;99.90;;;23.49;0.00;146996.44;4929267;29;20456;-73
2022/12/15 10:22:15;;;;;;;45.10;22.87;;;1.10;99.90;;;;;;4928694;29;21009;-73
2022/12/15 10:24:42;;;;;;;49.07;23.37;;;1.10;99.90;;;;;;4929074;29;20460;-72
2022/12/15 10:27:22;;;;;;;44.20;21.73;;;1.20;99.90;;;;;;4928413;29;20958;-73
2022/12/15 10:29:59;;;;;;;40.30;21.23;;;1.20;99.90;;;;;;4929037;29;20458;-72
2022/12/15 10:32:33;;;;;;;44.23;20.53;;;1.20;99.90;;;;;;4928681;29;20498;-72
2022/12/15 10:35:00;;;;;;;44.90;22.00;;;1.20;99.90;;;;;;4928808;29;20502;-73
2022/12/15 10:37:28;;;;;;;47.70;21.70;;;1.20;99.90;;;;;;4928021;29;20877;-72
2022/12/15 10:39:55;;;;;;;48.07;22.30;;;1.30;99.90;;;;;;4938405;29;20469;-73
2022/12/15 10:42:24;;;;;;;49.47;24.27;;;1.30;99.90;;;;;;4946921;28;20469;-73
2022/12/15 10:44:53;;;;;;;43.10;21.10;;;1.30;99.90;;;;;;4948192;29;20450;-75
2022/12/15 10:47:24;;;;;;;42.30;21.77;;;1.30;99.90;;;;;;4947454;29;20548;-72
2022/12/15 10:49:52;;;;;;;44.83;22.97;;;1.30;99.90;;;;;;4948177;29;20485;-72
2022/12/15 10:52:26;;;;;;;41.13;21.00;;;1.30;99.90;;;;;;4947453;28;20512;-75
2022/12/15 10:54:55;;;;;;;38.47;21.30;;;1.30;99.90;;;;;;4947901;29;20989;-72
2022/12/15 10:57:27;;;;;;;40.90;21.53;;;1.30;99.90;;;;;;4946942;29;20466;-74
2022/12/15 10:59:55;;;;;;;44.20;20.40;;;1.30;99.90;;;;;;4948146;29;21227;-72
2022/12/15 11:02:35;;;;;;;44.10;22.50;;;1.30;99.90;;;;;;4947631;28;20487;-72
2022/12/15 11:05:03;;;;;;;44.30;21.80;;;1.30;99.90;;;;;;4948403;29;20445;-72
2022/12/15 11:07:35;;;;;;;48.63;21.43;;;1.30;99.90;;;;;;4947492;29;20461;-72
2022/12/15 11:10:17;;;;;;;42.60;21.73;;;1.40;99.90;;;;;;4948138;29;20456;-72
2022/12/15 11:12:52;;;;;;;42.40;21.50;;;1.50;99.90;;;;;;4948308;29;20863;-72
2022/12/15 11:15:41;;;;;;;42.10;21.10;;;1.50;99.90;;;;;;4938226;29;20445;-72
2022/12/15 11:18:21;;;;;;;39.30;20.40;;;1.60;99.90;;;;;;4927526;29;20466;-72
2022/12/15 11:20:53;;;;;;;46.97;23.53;;;1.60;99.90;;;;;;4929414;29;20473;-73
2022/12/15 11:23:24;;;;;;;42.93;20.50;;;1.60;99.90;;;;;;4931336;29;20958;-77
2022/12/15 11:25:58;;;;;;;44.50;21.70;;;1.60;99.90;;;;;;4930471;29;21247;-80
2022/12/15 11:28:34;;;;;;;45.77;21.70;;;1.70;99.90;;;;;;4932218;29;20437;-77
2022/12/15 11:31:10;;;;;;;43.30;20.17;;;1.70;99.90;;;;;;4931521;29;20501;-74
2022/12/15 11:33:36;;;;;;;45.77;22.57;;;1.70;99.90;;;;;;4932003;29;20450;-77
2022/12/15 11:36:13;;;;;;;42.00;21.80;;;1.80;99.90;;;;;;4930886;29;20458;-74
2022/12/15 11:38:44;;;;;;;49.43;23.47;;;1.70;99.90;;;;;;4931158;29;20450;-75
2022/12/15 11:41:27;;;;;;;41.23;20.77;;;1.70;99.90;;;;;;4931623;29;20509;-74
2022/12/15 11:44:11;;;;;;;46.57;23.63;;;1.70;99.90;;;;;;4931010;29;20845;-76
2022/12/15 11:46:42;;;;;;;43.63;20.73;;;1.80;99.90;;;;;;4930548;29;20521;-74
2022/12/15 11:49:40;;;;;;;46.80;22.07;;;1.70;99.90;;;;;;4931845;29;20453;-75
2022/12/15 11:52:15;;;;;;;44.27;21.70;;;1.70;99.90;;;;;;4899126;29;20498;-74
2022/12/15 11:54:50;;;;;;;41.27;21.10;;;1.60;99.90;;;;;;4930727;29;20469;-76
2022/12/15 12:00:20;;;;;;;40.43;19.93;;;1.60;99.90;;;;;;5124199;27;20636;-74
2022/12/15 12:03:00;;;;;;;44.03;20.43;;;1.70;99.90;;;;;;5103823;28;20445;-74
2022/12/15 12:06:02;;;;;;;36.57;18.67;;;1.70;99.90;;;;;;5104088;28;20434;-76
2022/12/15 12:08:43;;;;;;;39.87;19.80;;;1.70;99.90;;;;;;5093504;28;20450;-73
2022/12/15 12:11:13;;;;;;;41.30;20.60;;;1.70;99.90;;;;;;5104175;28;20478;-76
2022/12/15 12:13:52;;;;;;;39.23;20.67;;;1.70;99.90;;;;;;5104605;28;20486;-74
2022/12/15 12:16:31;;;;;;;42.40;20.60;;;1.80;99.90;;;;;;5103213;28;20808;-74
2022/12/15 12:19:04;;;;;;;40.80;19.70;;;1.90;99.90;;;;;;5104813;28;20474;-73
2022/12/15 12:21:36;;;;;;;44.90;22.17;;;1.90;99.90;;;;;;5104129;28;21039;-74
2022/12/15 12:24:11;;;;;;;46.03;22.03;;;2.00;99.90;;;;;;5104655;28;20481;-74
2022/12/15 12:26:42;;;;;;;47.60;21.00;;;2.10;99.90;;;;;;5103676;28;20434;-72
2022/12/15 12:29:17;;;;;;;42.63;20.83;;;2.10;99.90;;;;;;5104368;28;20449;-72
2022/12/15 12:31:58;;;;;;;40.70;21.10;;;2.10;99.90;;;23.55;0.00;146988.81;5104274;28;20484;-74
2022/12/15 12:34:33;;;;;;;40.00;21.03;;;2.10;99.90;;;;;;5083216;28;20449;-72
2022/12/15 12:37:14;;;;;;;40.93;20.63;;;2.10;99.90;;;;;;5083021;28;20437;-74
2022/12/15 12:39:41;;;;;;;43.23;21.13;;;2.10;99.90;;;;;;5084216;28;20487;-72
2022/12/15 12:42:15;;;;;;;36.47;19.37;;;2.00;99.90;;;;;;5083863;28;20463;-72
2022/12/15 12:44:42;;;;;;;42.63;20.50;;;2.00;99.90;;;;;;5083208;28;20808;-73
2022/12/15 12:47:17;;;;;;;45.70;21.60;;;2.00;99.90;;;;;;5082407;28;20451;-73
2022/12/15 12:49:47;;;;;;;43.07;21.60;;;2.00;99.90;;;;;;5083531;28;20443;-74
2022/12/15 12:52:24;;;;;;;38.23;20.43;;;2.00;99.90;;;;;;5083751;28;20475;-75
2022/12/15 12:54:58;;;;;;;46.07;21.53;;;2.00;99.90;;;;;;5083807;28;20435;-73
2022/12/15 12:57:39;;;;;;;45.50;21.23;;;2.00;99.90;;;;;;5081605;28;20954;-73
2022/12/15 13:00:16;;;;;;;40.77;19.80;;;2.10;99.90;;;;;;5083367;28;20491;-77
2022/12/15 13:03:09;;;;;;;39.90;19.27;;;2.10;99.90;;;;;;5082847;28;20541;-75
2022/12/15 13:05:38;;;;;;;37.33;17.83;;;2.10;99.90;;;;;;5080932;28;20528;-66
2022/12/15 13:08:28;;;;;;;35.20;18.30;;;2.10;99.90;;;;;;5079736;28;20452;-66
2022/12/15 13:10:55;;;;;;;35.30;17.40;;;2.10;99.90;;;;;;5070462;28;20467;-66
2022/12/15 13:13:44;;;;;;;37.87;19.00;;;2.10;99.90;;;;;;5067385;28;20455;-66
2022/12/15 13:16:18;;;;;;;37.43;18.30;;;2.10;99.90;;;;;;5066603;28;20475;-74
2022/12/15 13:19:05;;;;;;;38.03;20.03;;;2.10;99.90;;;;;;5067005;28;20499;-74
2022/12/15 13:21:52;;;;;;;35.60;18.00;;;2.10;99.90;;;;;;5066994;28;20487;-73
2022/12/15 13:24:27;;;;;;;34.40;17.20;;;2.10;99.90;;;;;;5066417;28;20448;-73
2022/12/15 13:27:15;;;;;;;35.27;18.43;;;2.10;99.90;;;;;;5063302;28;21182;-77
2022/12/15 13:29:59;;;;;;;34.23;18.17;;;2.20;99.90;;;;;;5053065;28;20438;-74
2022/12/15 13:32:32;;;;;;;30.87;17.40;;;2.30;99.90;;;;;;5060192;28;20478;-77
2022/12/15 13:35:16;;;;;;;33.73;17.20;;;2.30;99.90;;;;;;5067407;28;20501;-73
2022/12/15 13:37:51;;;;;;;32.20;16.37;;;2.30;99.90;;;23.80;0.00;146818.56;5065826;28;20920;-74
2022/12/15 13:40:51;;;;;;;31.27;16.30;;;2.30;99.90;;;;;;5067100;28;20476;-74
2022/12/15 13:43:45;;;;;;;33.63;17.80;;;2.30;99.90;;;;;;5066459;28;20462;-74
2022/12/15 13:46:18;;;;;;;29.70;16.03;;;2.20;99.90;;;;;;5065853;28;20448;-76
2022/12/15 13:48:46;;;;;;;30.67;16.77;;;2.20;99.90;;;;;;5067122;28;20424;-77
2022/12/15 13:51:28;;;;;;;28.10;15.87;;;2.30;99.90;;;;;;5066338;28;20475;-77
2022/12/15 13:53:59;;;;;;;32.73;16.40;;;2.20;99.90;;;;;;5066425;28;20457;-74
2022/12/15 13:56:51;;;;;;;28.80;14.70;;;2.30;99.90;;;;;;5067529;28;20447;-73
2022/12/15 13:59:33;;;;;;;27.40;15.90;;;2.30;99.90;;;;;;5067905;28;20496;-73
2022/12/15 14:02:00;;;;;;;27.77;14.80;;;2.20;99.90;;;;;;5067527;28;20472;-73
2022/12/15 14:04:27;;;;;;;29.47;15.40;;;2.20;99.90;;;;;;5068266;28;20448;-73
2022/12/15 14:06:57;;;;;;;31.90;16.37;;;2.30;99.90;;;;;;5067187;28;20452;-73
2022/12/15 14:09:28;;;;;;;33.40;16.00;;;2.30;99.90;;;;;;5067892;28;20448;-73
2022/12/15 14:11:56;;;;;;;32.20;15.90;;;2.30;99.90;;;;;;5067791;28;20472;-76
2022/12/15 14:14:26;;;;;;;31.30;15.53;;;2.30;99.90;;;;;;5067527;28;20452;-75
2022/12/15 14:16:58;;;;;;;25.70;16.17;;;2.30;99.90;;;;;;5067175;28;20458;-73
2022/12/15 14:19:25;;;;;;;28.80;15.37;;;2.30;99.90;;;;;;5067671;28;20482;-73
2022/12/15 14:21:53;;;;;;;27.87;14.30;;;2.20;99.90;;;;;;5066587;28;20479;-73
2022/12/15 14:24:30;;;;;;;29.20;15.37;;;2.10;99.90;;;;;;5067305;28;20451;-73
2022/12/15 14:26:57;;;;;;;26.07;14.77;;;2.10;99.90;;;;;;5066375;28;20452;-73
2022/12/15 14:29:25;;;;;;;27.67;14.97;;;2.10;99.90;;;;;;5067425;28;20455;-75
2022/12/15 14:31:54;;;;;;;30.47;16.13;;;2.20;99.90;;;;;;5067221;28;20472;-73
2022/12/15 14:34:32;;;;;;;28.73;15.17;;;2.10;99.90;;;;;;5067151;28;20448;-73
2022/12/15 14:37:02;;;;;;;27.47;15.57;;;2.20;99.90;;;;;;5066732;28;20444;-73
2022/12/15 14:39:34;;;;;;;27.77;14.90;;;2.20;99.90;;;;;;5067485;28;20491;-74
2022/12/15 14:42:02;;;;;;;31.63;14.07;;;2.30;99.90;;;;;;5067332;28;20537;-75
2022/12/15 14:44:32;;;;;;;25.77;15.00;;;2.20;99.90;;;;;;5067070;28;20455;-75
2022/12/15 14:47:01;;;;;;;27.30;14.50;;;2.10;99.90;;;;;;5066133;28;20456;-74
2022/12/15 14:49:31;;;;;;;29.87;15.87;;;2.10;99.90;;;;;;5067160;28;20444;-73
2022/12/15 14:52:00;;;;;;;29.63;15.57;;;2.00;99.90;;;;;;5066668;28;20474;-77
2022/12/15 14:54:31;;;;;;;29.27;15.27;;;1.90;99.90;;;;;;5065907;28;20789;-72
2022/12/15 14:57:00;;;;;;;26.87;15.03;;;2.00;99.90;;;;;;5065968;28;20825;-72
2022/12/15 14:59:33;;;;;;;29.50;15.10;;;2.00;99.90;;;;;;5066345;28;20488;-74
2022/12/15 15:02:11;;;;;;;27.47;14.40;;;2.00;99.90;;;;;;5066653;28;20900;-72
2022/12/15 15:04:38;;;;;;;26.20;15.10;;;2.00;99.90;;;;;;5066218;28;20459;-74
2022/12/15 15:07:06;;;;;;;30.70;15.23;;;2.00;99.90;;;;;;5066117;28;20444;-72
2022/12/15 15:09:40;;;;;;;27.27;14.83;;;2.00;99.90;;;;;;5066119;28;21150;-73
2022/12/15 15:12:08;;;;;;;29.03;14.90;;;2.00;99.90;;;;;;5066340;28;20468;-74
2022/12/15 15:14:40;;;;;;;26.43;14.70;;;2.00;99.90;;;;;;5066233;28;20462;-79
2022/12/15 15:17:15;;;;;;;29.43;15.13;;;2.00;99.90;;;;;;5065636;28;20447;-75
2022/12/15 15:19:47;;;;;;;29.97;16.73;;;2.00;99.90;;;;;;5066552;28;20471;-74
2022/12/15 15:22:33;;;;;;;33.67;16.70;;;2.00;99.90;;;;;;5066377;28;20482;-74
2022/12/15 15:25:02;;;;;;;31.87;16.67;;;2.00;99.90;;;;;;5066433;28;20478;-74
2022/12/15 15:27:36;;;;;;;33.03;17.30;;;2.00;99.90;;;;;;5065346;28;20459;-76
2022/12/15 15:30:20;;;;;;;29.57;17.43;;;2.00;99.90;;;;;;5066025;28;20954;-74
2022/12/15 15:32:56;;;;;;;30.17;16.27;;;2.00;99.90;;;23.48;0.00;146991.34;5065888;28;20458;-74
2022/12/15 15:35:25;;;;;;;31.00;17.63;;;2.10;99.90;;;;;;5065498;28;20444;-75
2022/12/15 15:38:02;;;;;;;33.97;17.50;;;2.00;99.90;;;;;;5065330;28;20448;-74
2022/12/15 15:40:30;;;;;;;33.17;15.77;;;2.00;99.90;;;;;;5065815;28;20492;-79
2022/12/15 15:42:57;;;;;;;31.40;17.90;;;2.00;99.90;;;;;;5064379;28;21146;-79
2022/12/15 15:45:24;;;;;;;36.27;17.00;;;2.00;99.90;;;;;;5065548;28;20454;-73
2022/12/15 15:47:52;;;;;;;31.83;17.10;;;1.90;99.90;;;;;;5064991;28;20487;-74
2022/12/15 15:50:25;;;;;;;32.87;16.50;;;1.90;99.90;;;;;;5065796;28;20451;-74
2022/12/15 15:52:52;;;;;;;38.60;19.33;;;2.00;99.90;;;;;;5066078;28;20444;-74
2022/12/15 15:55:26;;;;;;;37.20;18.27;;;2.00;99.90;;;;;;5064536;28;20460;-76
2022/12/15 15:57:55;;;;;;;32.03;18.47;;;2.00;99.90;;;;;;5065263;28;20432;-76
2022/12/15 16:00:27;;;;;;;33.20;17.53;;;2.00;99.90;;;;;;5065733;28;20541;-73
2022/12/15 16:02:54;;;;;;;37.23;18.33;;;2.00;99.90;;;;;;5065679;28;20448;-73
2022/12/15 16:05:21;;;;;;;36.97;20.77;;;2.00;99.90;;;;;;5065660;28;20456;-73
2022/12/15 16:07:49;;;;;;;38.20;20.70;;;1.90;99.90;;;;;;5064618;28;20458;-73
2022/12/15 16:10:19;;;;;;;35.67;19.37;;;1.90;99.90;;;;;;5065069;28;20531;-73
2022/12/15 16:12:49;;;;;;;31.23;19.40;;;1.90;99.90;;;;;;5064963;28;20521;-73
2022/12/15 16:15:19;;;;;;;39.50;20.43;;;1.90;99.90;;;;;;5065276;28;20448;-74
2022/12/15 16:17:47;;;;;;;35.60;19.10;;;1.90;99.90;;;;;;5062651;28;20934;-74
2022/12/15 16:20:15;;;;;;;33.80;17.77;;;1.90;99.90;;;;;;5064038;28;20900;-73
2022/12/15 16:22:44;;;;;;;36.80;18.63;;;2.00;99.90;;;;;;5063100;28;21205;-73
2022/12/15 16:25:16;;;;;;;35.60;18.70;;;2.00;99.90;;;;;;5064414;28;20451;-73
2022/12/15 16:27:43;;;;;;;36.70;19.33;;;2.00;99.90;;;;;;5063573;28;21049;-71
2022/12/15 16:30:21;;;;;;;39.77;19.10;;;2.00;99.90;;;;;;5063883;28;20474;-70
2022/12/15 16:32:48;;;;;;;37.55;19.10;;;2.00;99.90;;;;;;5063925;28;20440;-74
2022/12/15 16:35:16;;;;;;;34.80;20.30;;;2.00;99.90;;;;;;5063190;28;20492;-71
2022/12/15 16:37:45;;;;;;;33.13;19.23;;;2.20;99.90;;;;;;5063723;28;20318;-71
2022/12/15 16:40:21;;;;;;;40.57;19.50;;;2.30;99.90;;;;;;5063589;28;21027;-74
2022/12/15 16:42:54;;;;;;;38.33;20.23;;;2.20;99.90;;;;;;5063635;28;20455;-74
2022/12/15 16:45:25;;;;;;;37.30;18.97;;;2.10;99.90;;;;;;5064943;28;20935;-75
2022/12/15 16:47:52;;;;;;;32.77;18.10;;;2.10;99.90;;;;;;5067021;28;20444;-72
2022/12/15 16:50:22;;;;;;;42.13;21.70;;;2.00;99.90;;;;;;5066608;28;20474;-71
2022/12/15 16:52:52;;;;;;;34.17;19.00;;;2.00;99.90;;;;;;5066954;28;21243;-72
2022/12/15 16:55:25;;;;;;;36.10;18.40;;;2.00;99.90;;;;;;5067678;28;20463;-71
2022/12/15 16:57:55;;;;;;;35.53;20.73;;;2.00;99.90;;;;;;5067980;28;20593;-72
2022/12/15 17:00:27;;;;;;;32.93;19.10;;;2.00;99.90;;;;;;5067395;28;20565;-72
2022/12/15 17:02:54;;;;;;;40.57;20.10;;;1.90;99.90;;;;;;5068130;28;21015;-77
2022/12/15 17:05:25;;;;;;;33.83;17.57;;;1.90;99.90;;;;;;5068816;28;20451;-75
2022/12/15 17:07:55;;;;;;;35.40;17.87;;;1.80;99.90;;;;;;5067422;28;20433;-71
2022/12/15 17:10:24;;;;;;;38.03;19.80;;;1.70;99.90;;;;;;5068591;28;20452;-72
2022/12/15 17:12:53;;;;;;;41.97;20.53;;;1.70;99.90;;;;;;5068281;28;20455;-72
2022/12/15 17:15:23;;;;;;;32.43;17.67;;;1.60;99.90;;;;;;5068222;28;20459;-65
2022/12/15 17:17:51;;;;;;;38.97;18.70;;;1.60;99.90;;;;;;5067636;28;20474;-66
2022/12/15 17:20:21;;;;;;;37.93;19.63;;;1.60;99.90;;;;;;5068237;28;20494;-66
2022/12/15 17:22:50;;;;;;;39.03;19.20;;;1.60;99.90;;;;;;5065476;28;20444;-65
2022/12/15 17:25:21;;;;;;;38.97;19.80;;;1.60;99.90;;;;;;5067824;28;21009;-72
2022/12/15 17:27:50;;;;;;;34.00;18.53;;;1.70;99.90;;;;;;5067527;28;20448;-72
2022/12/15 17:30:18;;;;;;;39.00;20.03;;;1.70;99.90;;;;;;5068018;28;20448;-73
2022/12/15 17:32:47;;;;;;;36.87;18.53;;;1.70;99.90;;;;;;5068353;28;20452;-72
2022/12/15 17:35:16;;;;;;;40.90;20.77;;;1.70;99.90;;;;;;5068181;28;20483;-74
2022/12/15 17:37:44;;;;;;;35.77;18.27;;;1.60;99.90;;;;;;5067146;28;20932;-72
2022/12/15 17:40:19;;;;;;;33.90;18.40;;;1.60;99.90;;;;;;5067576;28;21003;-73
2022/12/15 17:42:46;;;;;;;37.77;19.13;;;1.60;99.90;;;;;;5067686;28;20440;-71
2022/12/15 17:45:15;;;;;;;30.07;16.73;;;1.60;99.90;;;;;;5067839;28;20451;-74
2022/12/15 17:47:42;;;;;;;35.77;18.27;;;1.50;99.90;;;;;;5067094;28;20482;-72
2022/12/15 17:50:10;;;;;;;36.37;18.90;;;1.60;99.90;;;;;;5067739;28;20497;-72
2022/12/15 17:52:39;;;;;;;38.87;19.97;;;1.50;99.90;;;;;;5067571;28;20464;-76
2022/12/15 17:55:17;;;;;;;35.90;18.70;;;1.60;99.90;;;;;;5067753;28;20468;-73
2022/12/15 17:57:43;;;;;;;33.03;17.37;;;1.60;99.90;;;;;;5067054;28;20468;-73
2022/12/15 18:00:19;;;;;;;33.33;18.23;;;1.50;99.90;;;;;;5066699;28;21007;-73
2022/12/15 18:02:47;;;;;;;38.00;19.33;;;1.60;99.90;;;;;;5068022;28;20809;-74
2022/12/15 18:05:15;;;;;;;37.23;19.67;;;1.60;99.90;;;;;;5067839;28;20637;-79
2022/12/15 18:07:43;;;;;;;37.93;17.73;;;1.70;99.90;;;;;;5067111;28;20451;-75
2022/12/15 18:10:26;;;;;;;33.77;19.23;;;1.70;99.90;;;;;;5067787;28;20459;-73
2022/12/15 18:12:53;;;;;;;33.23;18.67;;;1.80;99.90;;;;;;5067435;28;20584;-78
2022/12/15 18:15:23;;;;;;;37.80;20.77;;;1.70;99.90;;;;;;5065675;28;20462;-75
2022/12/15 18:17:50;;;;;;;32.47;18.17;;;1.80;99.90;;;;;;5065751;28;20452;-74
2022/12/15 18:20:17;;;;;;;32.87;18.10;;;1.80;99.90;;;;;;5065733;28;20488;-74
2022/12/15 18:22:46;;;;;;;41.13;18.93;;;1.80;99.90;;;;;;5066267;28;20448;-74
2022/12/15 18:25:18;;;;;;;32.77;18.47;;;1.80;99.90;;;;;;5066330;28;20814;-74
2022/12/15 18:27:45;;;;;;;33.07;17.97;;;1.80;99.90;;;;;;5065010;28;20452;-74